»·PEaware :: SKW211 KABQ-KDEN

SKW211 :: KABQ-KDEN

FLIGHT INFORMATION

Flight Status: Arrived
Operator:
SkyWest Airlines
More flights by this operator :: More flights under this callsign
Pilot: Alfredo R. (12181)
Aircraft: CANADAIR CL-600 CRJ-200
(CRJ2)
More flights by this aircraft type
Origin: KABQ Albuquerque Intl Sunport
United States
Destination: KDEN Denver Intl
United States
More flights between these airports :: More routes between these airports
Route: ATOMK3 ATOMK GNDLA TBARR1
File this flight plan on PilotEdge
Remarks: RMK / SIMBRIEF
Altitude:
(Current/Filed)
330ft
Speed:
(Current/Filed)
394kts
Departed: 11-Aug-20 03:35 PM
Arrived: 11-Aug-20 04:38 PM
Distance/Time
Traveled:
304nm/1:03
Distance/Time
To Go:
Arrived

Flight Plot

Page will automatically refresh every two minutes.

Flight plan parsing failed; only flown route is shown


Map Options




Map Legend


Flown Route
Filed Route
Departure Airport
Arrival Airport
Navaid (VOR, NDB)
Fix

Horizontal Profiles

Position Reports

Time Latitude Longitude Heading Altitude Ground
Speed
11-Aug-20 14:34 35.046927 -106.616394 11 5359ft 0kts
11-Aug-20 14:35 35.046927 -106.616394 11 5359ft 0kts
11-Aug-20 14:36 35.046927 -106.616394 11 5359ft 0kts
11-Aug-20 14:37 35.046927 -106.616394 11 5359ft 0kts
11-Aug-20 14:38 35.046927 -106.616394 11 5359ft 0kts
11-Aug-20 14:39 35.046927 -106.616394 11 5359ft 0kts
11-Aug-20 14:40 35.046927 -106.616394 11 5359ft 0kts
11-Aug-20 14:41 35.046927 -106.616394 11 5359ft 0kts
11-Aug-20 14:42 35.046927 -106.616394 11 5359ft 0kts
11-Aug-20 14:43 35.046927 -106.616394 11 5359ft 0kts
11-Aug-20 14:44 35.046927 -106.616394 11 5359ft 0kts
11-Aug-20 14:45 35.046927 -106.616394 11 5359ft 0kts
11-Aug-20 14:46 35.046927 -106.616394 11 5359ft 0kts
11-Aug-20 14:47 35.046927 -106.616394 11 5359ft 0kts
11-Aug-20 14:48 35.046927 -106.616394 11 5359ft 0kts
11-Aug-20 14:49 35.046927 -106.616394 11 5359ft 0kts
11-Aug-20 14:50 35.046927 -106.616394 11 5359ft 0kts
11-Aug-20 14:51 35.046927 -106.616394 11 5359ft 0kts
11-Aug-20 14:52 35.046927 -106.616394 11 5359ft 0kts
11-Aug-20 14:53 35.046927 -106.616394 11 5359ft 0kts
11-Aug-20 14:54 35.046927 -106.616394 11 5359ft 0kts
11-Aug-20 14:55 35.046927 -106.616394 11 5359ft 0kts
11-Aug-20 14:56 35.046927 -106.616394 11 5359ft 0kts
11-Aug-20 14:57 35.046927 -106.616394 11 5359ft 0kts
11-Aug-20 14:58 35.046927 -106.616394 11 5359ft 0kts
11-Aug-20 14:59 35.046927 -106.616394 11 5359ft 0kts
11-Aug-20 15:00 35.046927 -106.616394 11 5359ft 0kts
11-Aug-20 15:01 35.046927 -106.616394 11 5359ft 0kts
11-Aug-20 15:02 35.046927 -106.616394 11 5359ft 0kts
11-Aug-20 15:03 35.046927 -106.616394 11 5359ft 0kts
11-Aug-20 15:04 35.046927 -106.616394 11 5359ft 0kts
11-Aug-20 15:05 35.046927 -106.616394 11 5359ft 0kts
11-Aug-20 15:06 35.046927 -106.616394 11 5359ft 0kts
11-Aug-20 15:07 35.046927 -106.616394 11 5359ft 0kts
11-Aug-20 15:08 35.046927 -106.616394 11 5359ft 0kts
11-Aug-20 15:09 35.046927 -106.616394 11 5359ft 0kts
11-Aug-20 15:10 35.046927 -106.616394 11 5359ft 0kts
11-Aug-20 15:11 35.046927 -106.616394 11 5359ft 0kts
11-Aug-20 15:12 35.046838 -106.616420 12 5359ft 2kts
11-Aug-20 15:13 35.046381 -106.616710 81 5359ft 2kts
11-Aug-20 15:14 35.046380 -106.616476 89 5359ft 0kts
11-Aug-20 15:15 35.046380 -106.616469 89 5359ft 0kts
11-Aug-20 15:16 35.046380 -106.616469 89 5359ft 0kts
11-Aug-20 15:17 35.046380 -106.616469 89 5359ft 0kts
11-Aug-20 15:18 35.046380 -106.616469 89 5359ft 0kts
11-Aug-20 15:19 35.046380 -106.616469 89 5359ft 0kts
11-Aug-20 15:20 35.046381 -106.616469 89 5359ft 0kts
11-Aug-20 15:21 35.046350 -106.616213 109 5359ft 2kts
11-Aug-20 15:22 35.045768 -106.614439 87 5359ft 8kts
11-Aug-20 15:24 35.045793 -106.610543 90 5359ft 13kts
11-Aug-20 15:25 35.045761 -106.605844 89 5359ft 14kts
11-Aug-20 15:26 35.045731 -106.600358 90 5359ft 17kts
11-Aug-20 15:27 35.045830 -106.594727 90 5359ft 16kts
11-Aug-20 15:28 35.045795 -106.588324 90 5359ft 20kts
11-Aug-20 15:29 35.045750 -106.581903 90 5359ft 13kts
11-Aug-20 15:30 35.045723 -106.577792 90 5359ft 11kts
11-Aug-20 15:31 35.045201 -106.575725 168 5359ft 0kts
11-Aug-20 15:32 35.045144 -106.575711 168 5359ft 0kts
11-Aug-20 15:33 35.045062 -106.575693 171 5359ft 0kts
11-Aug-20 15:34 35.044181 -106.576181 235 5359ft 7kts
11-Aug-20 15:35 35.044109 -106.587591 270 5359ft 105kts
11-Aug-20 15:36 35.043522 -106.646316 267 6766ft 208kts
11-Aug-20 15:37 35.056689 -106.721571 281 9379ft 245kts
11-Aug-20 15:38 35.097766 -106.787239 344 11954ft 286kts
11-Aug-20 15:39 35.183695 -106.808343 348 14372ft 324kts
11-Aug-20 15:39 35.261045 -106.825282 347 16242ft 349kts
11-Aug-20 15:41 35.377778 -106.850775 345 19106ft 369kts
11-Aug-20 15:42 35.481366 -106.869742 348 21533ft 379kts
11-Aug-20 15:42 35.569905 -106.883404 348 23196ft 392kts
11-Aug-20 15:44 35.709025 -106.904844 349 23538ft 460kts
11-Aug-20 15:44 35.810094 -106.920427 349 25650ft 431kts
11-Aug-20 15:45 35.929785 -106.939042 348 26769ft 432kts
11-Aug-20 15:46 36.051317 -106.923523 6 27616ft 445kts
11-Aug-20 15:47 36.174170 -106.898078 6 28401ft 450kts
11-Aug-20 15:48 36.301456 -106.871654 4 29060ft 457kts
11-Aug-20 15:49 36.426958 -106.845709 4 30220ft 455kts
11-Aug-20 15:50 36.552529 -106.819558 4 31737ft 451kts
11-Aug-20 15:51 36.675234 -106.793932 3 33233ft 443kts
11-Aug-20 15:52 36.797075 -106.766270 5 33332ft 446kts
11-Aug-20 15:53 36.916946 -106.732972 6 33330ft 441kts
11-Aug-20 15:54 37.035623 -106.699696 6 33331ft 435kts
11-Aug-20 15:55 37.153148 -106.666658 6 33329ft 439kts
11-Aug-20 15:56 37.271914 -106.633118 6 33574ft 437kts
11-Aug-20 15:57 37.391096 -106.599401 5 33671ft 438kts
11-Aug-20 15:58 37.510168 -106.565590 6 33673ft 438kts
11-Aug-20 15:59 37.629838 -106.531494 6 33565ft 441kts
11-Aug-20 16:00 37.751013 -106.496893 6 33301ft 444kts
11-Aug-20 16:01 37.869567 -106.462948 5 33297ft 437kts
11-Aug-20 16:02 37.985750 -106.429585 5 33271ft 432kts
11-Aug-20 16:03 38.099665 -106.396777 5 33272ft 429kts
11-Aug-20 16:04 38.215380 -106.363362 6 32143ft 445kts
11-Aug-20 16:05 38.332575 -106.329360 6 30711ft 457kts
11-Aug-20 16:06 38.454698 -106.293849 7 29228ft 460kts
11-Aug-20 16:07 38.574528 -106.258176 12 27747ft 442kts
11-Aug-20 16:08 38.677737 -106.199403 49 27529ft 413kts
11-Aug-20 16:09 38.751699 -106.084819 47 27324ft 432kts
11-Aug-20 16:10 38.831535 -105.962202 47 27268ft 454kts
11-Aug-20 16:11 38.912623 -105.837084 47 26040ft 446kts
11-Aug-20 16:12 38.989341 -105.717906 47 24528ft 418kts
11-Aug-20 16:13 39.062126 -105.604412 48 23026ft 403kts
11-Aug-20 16:14 39.132937 -105.493662 48 21535ft 394kts
11-Aug-20 16:15 39.202665 -105.383287 49 20022ft 388kts
11-Aug-20 16:16 39.270097 -105.275962 50 18500ft 374kts
11-Aug-20 16:17 39.345259 -105.196539 34 16965ft 342kts
11-Aug-20 16:18 39.420928 -105.125981 34 15454ft 327kts
11-Aug-20 16:19 39.495741 -105.065653 25 14511ft 309kts
11-Aug-20 16:20 39.571235 -105.015971 25 14355ft 312kts
11-Aug-20 16:21 39.650791 -104.963814 25 13978ft 327kts
11-Aug-20 16:22 39.726872 -104.913808 25 13412ft 305kts
11-Aug-20 16:23 39.797523 -104.867144 23 12459ft 258kts
11-Aug-20 16:24 39.862021 -104.840866 359 11636ft 236kts
11-Aug-20 16:25 39.924971 -104.836090 1 10992ft 220kts
11-Aug-20 16:26 39.991001 -104.828514 1 10982ft 249kts
11-Aug-20 16:27 40.060360 -104.819968 0 10086ft 253kts
11-Aug-20 16:28 40.131118 -104.811142 0 9180ft 250kts
11-Aug-20 16:29 40.190714 -104.776351 68 8234ft 240kts
11-Aug-20 16:30 40.162396 -104.707575 137 7922ft 207kts
11-Aug-20 16:31 40.110898 -104.681594 189 7116ft 212kts
11-Aug-20 16:32 40.054335 -104.684830 184 7109ft 200kts
11-Aug-20 16:33 40.002313 -104.685624 185 6924ft 179kts
11-Aug-20 16:34 39.953580 -104.686141 186 6248ft 162kts
11-Aug-20 16:35 39.909863 -104.686287 182 5844ft 160kts
11-Aug-20 16:36 39.873500 -104.687145 180 5436ft 60kts
11-Aug-20 16:37 39.868214 -104.685698 93 5436ft 0kts
11-Aug-20 16:38 39.868189 -104.684369 90 5436ft 8kts
11-Aug-20 16:39 39.864691 -104.683862 180 5436ft 18kts
11-Aug-20 16:40 39.860312 -104.683346 100 5436ft 12kts
11-Aug-20 16:41 39.860586 -104.677139 89 5436ft 22kts
11-Aug-20 16:42 39.860560 -104.671921 88 5436ft 9kts
11-Aug-20 16:43 39.860568 -104.668599 110 5436ft 10kts
11-Aug-20 16:44 39.859522 -104.668215 180 5436ft 0kts
11-Aug-20 16:45 39.859491 -104.668216 180 5436ft 0kts
11-Aug-20 16:46 39.859491 -104.668215 180 5436ft 0kts
11-Aug-20 16:47 39.859491 -104.668215 180 5436ft 0kts
11-Aug-20 16:48 39.859491 -104.668215 180 5436ft 0kts
11-Aug-20 16:49 39.859491 -104.668215 180 5436ft 0kts

Navigation Log

Ident Type
Flight plan parsing failed, navigation log unavailable